Higgins, Oklahoma
Current Conditions -  °F | °C
As of 11:53 PM on Wednesday 28 Jan 2015 (Local Time) from KMLC Reporting Station
Broken Clouds Broken Clouds  
Wind Chill: 60°   Ceiling: 12000
Heat Index: 60°   Visibility: 10mi
Dew Point: 42°   Wind: 7mph
Humidity: 51%   Direction: 210°SSW
Pressure: 30"   Gusts: NA
Location:  34.8806°N, 95.3086°W
Report Text: KMLC 290553Z AUTO 21006KT 10SM FEW070 SCT100 BKN120 16/06 A3000 RMK AO2 SLP154 T01560056 10233 20150 402610094 53017
Loading
Personal Weather Stations






























Interactive Weather Map New forecast layout! Learn more

10-Day Weather Forecast

Advertisements
Track Severe Weather on mobile